createdAt,value
2023-03-16T00:01:47.962Z,70.27
2023-03-16T00:03:50.774Z,70.49
2023-03-16T00:05:55.340Z,70.58
2023-03-16T00:07:58.123Z,70.67
2023-03-16T00:10:01.449Z,70.35
2023-03-16T00:12:04.667Z,71.00
2023-03-16T00:14:08.613Z,70.58
2023-03-16T00:16:17.122Z,70.71
2023-03-16T00:18:20.330Z,70.73
2023-03-16T00:20:23.731Z,70.53
2023-03-16T00:22:30.612Z,70.58
2023-03-16T00:24:33.333Z,70.67
2023-03-16T00:26:36.222Z,70.30
2023-03-16T00:28:39.045Z,70.35
2023-03-16T00:30:47.416Z,70.82
2023-03-16T00:32:53.908Z,71.44
2023-03-16T00:34:57.253Z,70.96
2023-03-16T00:37:00.128Z,71.19
2023-03-16T00:39:05.219Z,71.00
2023-03-16T00:41:09.383Z,71.43
2023-03-16T00:43:12.210Z,71.02
2023-03-16T00:45:15.048Z,71.20
2023-03-16T00:47:17.864Z,71.44
2023-03-16T00:49:22.307Z,71.40
2023-03-16T00:51:25.266Z,71.07
2023-03-16T00:53:28.175Z,71.00
2023-03-16T00:55:32.400Z,70.80
2023-03-16T00:57:35.605Z,71.13
2023-03-16T00:59:39.480Z,72.10
2023-03-16T01:01:42.318Z,71.97
2023-03-16T01:03:45.530Z,71.90
2023-03-16T01:05:48.845Z,71.42
2023-03-16T01:07:52.274Z,71.25
2023-03-16T01:09:55.088Z,71.27
2023-03-16T01:11:59.321Z,71.16
2023-03-16T01:14:03.883Z,70.75
2023-03-16T01:16:07.774Z,71.23
2023-03-16T01:18:10.581Z,71.40
2023-03-16T01:20:15.024Z,70.94
2023-03-16T01:22:18.223Z,71.71
2023-03-16T01:24:20.998Z,71.78
2023-03-16T01:26:25.097Z,71.18
2023-03-16T01:28:31.762Z,72.06
2023-03-16T01:30:35.965Z,71.90
2023-03-16T01:32:39.803Z,71.87
2023-03-16T01:34:43.456Z,71.90
2023-03-16T01:36:49.278Z,71.60
2023-03-16T01:39:00.362Z,71.81
2023-03-16T01:41:07.790Z,71.89
2023-03-16T01:43:12.464Z,72.51
2023-03-16T01:46:08.517Z,72.14
2023-03-16T01:48:17.487Z,72.06
2023-03-16T01:50:20.610Z,71.76
2023-03-16T01:52:27.016Z,71.62
2023-03-16T01:54:33.863Z,71.87
2023-03-16T01:56:41.645Z,71.81
2023-03-16T01:58:45.722Z,71.68
2023-03-16T02:00:48.655Z,72.14
2023-03-16T02:03:06.119Z,71.75
2023-03-16T02:05:27.866Z,72.41
2023-03-16T02:07:35.709Z,72.75
2023-03-16T02:09:44.018Z,72.30
2023-03-16T02:11:48.343Z,72.15
2023-03-16T02:13:52.627Z,72.04
2023-03-16T02:15:56.319Z,72.34
2023-03-16T02:18:00.953Z,72.26
2023-03-16T02:20:14.272Z,72.10
2023-03-16T02:22:17.618Z,72.56
2023-03-16T02:24:20.649Z,72.27
2023-03-16T02:26:31.830Z,71.75
2023-03-16T02:28:45.004Z,72.90
2023-03-16T02:30:49.732Z,72.12
2023-03-16T02:32:54.270Z,72.46
2023-03-16T02:34:59.170Z,72.25
2023-03-16T02:37:03.196Z,72.24
2023-03-16T02:39:06.814Z,72.82
2023-03-16T02:41:20.027Z,72.88
2023-03-16T02:43:33.216Z,72.31
2023-03-16T02:45:56.348Z,72.09
2023-03-16T02:48:06.430Z,72.24
2023-03-16T02:50:11.231Z,72.06
2023-03-16T02:52:14.253Z,72.75
2023-03-16T02:54:17.030Z,72.26
2023-03-16T02:56:19.799Z,71.88
2023-03-16T02:58:22.644Z,71.95
2023-03-16T03:00:26.252Z,72.67
2023-03-16T03:02:31.974Z,72.59
2023-03-16T03:04:34.761Z,72.49
2023-03-16T03:06:37.637Z,71.89
2023-03-16T03:08:40.328Z,72.54
2023-03-16T03:10:43.189Z,72.64
2023-03-16T03:12:49.333Z,72.39
2023-03-16T03:14:52.112Z,72.51
2023-03-16T03:16:56.801Z,72.83
2023-03-16T03:19:01.013Z,72.68
2023-03-16T03:21:07.010Z,72.87
2023-03-16T03:23:10.244Z,72.41
2023-03-16T03:25:14.130Z,73.08
2023-03-16T03:27:17.051Z,72.58
2023-03-16T03:29:20.636Z,72.53
2023-03-16T03:31:23.917Z,72.40
2023-03-16T03:33:27.651Z,72.25
2023-03-16T03:35:31.857Z,72.84
2023-03-16T03:37:35.374Z,73.00
2023-03-16T03:39:40.027Z,72.57
2023-03-16T03:41:43.077Z,72.75
2023-03-16T03:43:47.148Z,72.42
2023-03-16T03:45:57.079Z,72.80
2023-03-16T03:47:59.938Z,72.21
2023-03-16T03:50:02.759Z,72.89
2023-03-16T03:52:09.243Z,72.40
2023-03-16T03:54:12.034Z,72.39
2023-03-16T03:56:22.933Z,72.76
2023-03-16T03:58:25.871Z,72.53
2023-03-16T04:00:29.019Z,72.21
2023-03-16T04:02:32.203Z,72.64
2023-03-16T04:04:35.143Z,72.57
2023-03-16T04:06:38.062Z,72.87
2023-03-16T04:08:42.368Z,72.54
2023-03-16T04:10:48.158Z,73.14
2023-03-16T04:12:50.961Z,73.38
2023-03-16T04:14:54.892Z,73.43
2023-03-16T04:17:01.152Z,73.57
2023-03-16T04:19:04.405Z,73.83
2023-03-16T04:21:08.441Z,74.18
2023-03-16T04:23:11.169Z,73.90
2023-03-16T04:25:18.836Z,73.62
2023-03-16T04:27:22.388Z,73.74
2023-03-16T04:29:25.360Z,73.23
2023-03-16T04:31:28.412Z,73.42
2023-03-16T04:33:32.278Z,72.98
2023-03-16T04:35:35.631Z,72.71
2023-03-16T04:37:38.511Z,72.30
2023-03-16T04:39:42.048Z,72.28
2023-03-16T04:41:46.609Z,72.60
2023-03-16T04:43:57.616Z,72.27
2023-03-16T04:46:01.399Z,72.18
2023-03-16T04:48:06.970Z,72.59
2023-03-16T04:50:12.049Z,72.98
2023-03-16T04:52:15.431Z,72.56
2023-03-16T04:54:18.355Z,72.36
2023-03-16T04:56:21.309Z,72.96
2023-03-16T04:58:31.830Z,73.08
2023-03-16T05:00:36.918Z,73.09
2023-03-16T05:02:49.340Z,72.79
2023-03-16T05:04:52.223Z,74.02
2023-03-16T05:06:55.845Z,81.63
2023-03-16T05:09:05.754Z,78.22
2023-03-16T05:11:11.248Z,71.61
2023-03-16T05:13:23.666Z,70.39
2023-03-16T05:15:28.988Z,70.33
2023-03-16T05:17:36.338Z,70.66
2023-03-16T05:19:40.306Z,71.15
2023-03-16T05:21:43.133Z,71.36
2023-03-16T05:23:46.144Z,71.31
2023-03-16T05:25:50.775Z,71.53
2023-03-16T05:27:56.964Z,70.92
2023-03-16T05:30:20.460Z,71.30
2023-03-16T05:32:25.342Z,71.46
2023-03-16T05:34:28.503Z,71.40
2023-03-16T05:36:31.521Z,71.79
2023-03-16T05:38:42.399Z,72.41
2023-03-16T05:40:52.893Z,72.35
2023-03-16T05:43:10.663Z,71.98
2023-03-16T05:45:19.583Z,72.25
2023-03-16T05:47:47.214Z,71.78
2023-03-16T05:49:50.053Z,72.10
2023-03-16T05:52:01.338Z,71.67
2023-03-16T05:54:05.964Z,71.67
2023-03-16T05:56:16.174Z,72.06
2023-03-16T05:58:21.775Z,71.91
2023-03-16T06:00:27.721Z,71.83
2023-03-16T06:02:41.972Z,72.18
2023-03-16T06:04:46.471Z,71.97
2023-03-16T06:06:49.285Z,72.23
2023-03-16T06:08:56.666Z,72.20
2023-03-16T06:11:01.821Z,72.87
2023-03-16T06:13:05.171Z,72.91
2023-03-16T06:15:10.163Z,72.68
2023-03-16T06:17:13.120Z,73.23
2023-03-16T06:19:17.874Z,73.28
2023-03-16T06:21:24.772Z,73.19
2023-03-16T06:23:30.479Z,73.28
2023-03-16T06:25:34.489Z,73.46
2023-03-16T06:27:39.908Z,73.40
2023-03-16T06:29:47.241Z,72.82
2023-03-16T06:31:51.301Z,72.71
2023-03-16T06:33:54.486Z,73.25
2023-03-16T06:35:59.142Z,73.33
2023-03-16T06:38:11.330Z,73.00
2023-03-16T06:40:43.431Z,72.37
2023-03-16T06:42:47.359Z,72.76
2023-03-16T06:44:53.110Z,73.02
2023-03-16T06:46:56.273Z,73.01
2023-03-16T06:49:00.851Z,72.93
2023-03-16T06:51:03.942Z,72.37
2023-03-16T06:53:07.088Z,72.66
2023-03-16T06:55:14.414Z,72.36
2023-03-16T06:57:22.770Z,72.65
2023-03-16T06:59:26.395Z,72.20
2023-03-16T07:01:29.746Z,72.40
2023-03-16T07:03:32.590Z,72.50
2023-03-16T07:05:42.006Z,71.66
2023-03-16T07:07:45.547Z,72.00
2023-03-16T07:09:48.595Z,71.91
2023-03-16T07:11:53.004Z,71.55
2023-03-16T07:13:55.836Z,71.23
2023-03-16T07:15:59.947Z,71.87
2023-03-16T07:18:02.729Z,71.83
2023-03-16T07:20:10.191Z,71.66
2023-03-16T07:22:13.814Z,71.32
2023-03-16T07:24:17.297Z,71.04
2023-03-16T07:26:21.347Z,71.41
2023-03-16T07:28:32.230Z,71.07
2023-03-16T07:30:36.804Z,71.20
2023-03-16T07:32:41.634Z,70.88
2023-03-16T07:34:45.260Z,70.44
2023-03-16T07:36:49.563Z,70.76
2023-03-16T07:38:52.567Z,71.22
2023-03-16T07:40:55.307Z,71.14
2023-03-16T07:42:59.102Z,71.22
2023-03-16T07:45:08.171Z,70.62
2023-03-16T07:47:13.710Z,69.97
2023-03-16T07:49:17.709Z,70.21
2023-03-16T07:51:21.934Z,70.11
2023-03-16T07:53:26.147Z,70.08
2023-03-16T07:55:42.711Z,69.92
2023-03-16T07:57:47.926Z,69.70
2023-03-16T07:59:54.005Z,69.52
2023-03-16T08:01:58.190Z,69.77
2023-03-16T08:04:01.362Z,68.84
2023-03-16T08:06:05.398Z,68.71
2023-03-16T08:08:09.566Z,67.84
2023-03-16T08:10:14.092Z,67.61
2023-03-16T08:12:30.017Z,67.66
2023-03-16T08:14:34.294Z,66.99
2023-03-16T08:16:43.476Z,67.26
2023-03-16T08:18:47.682Z,67.06
2023-03-16T08:20:52.014Z,66.58
2023-03-16T08:22:55.137Z,66.76
2023-03-16T08:25:02.881Z,66.32
2023-03-16T08:27:05.852Z,65.46
2023-03-16T08:29:09.745Z,64.74
2023-03-16T08:31:14.995Z,64.92
2023-03-16T08:33:26.543Z,65.26
2023-03-16T08:35:30.929Z,65.17
2023-03-16T08:37:33.808Z,64.89
2023-03-16T08:39:36.742Z,64.15
2023-03-16T08:41:43.387Z,63.65
2023-03-16T08:43:57.735Z,63.47
2023-03-16T08:46:01.653Z,63.30
2023-03-16T08:48:14.349Z,63.00
2023-03-16T08:50:20.826Z,63.19
2023-03-16T08:52:25.930Z,62.63
2023-03-16T08:54:28.945Z,62.54
2023-03-16T08:56:32.395Z,62.11
2023-03-16T08:58:36.031Z,62.36
2023-03-16T09:00:39.190Z,62.21
2023-03-16T09:02:42.349Z,61.60
2023-03-16T09:04:45.921Z,61.88
2023-03-16T09:07:05.875Z,62.24
2023-03-16T09:09:11.969Z,61.11
2023-03-16T09:11:17.219Z,61.53
2023-03-16T09:13:20.026Z,61.57
2023-03-16T09:15:22.908Z,61.44
2023-03-16T09:17:25.728Z,61.32
2023-03-16T09:19:34.868Z,60.89
2023-03-16T09:21:46.491Z,59.95
2023-03-16T09:23:50.906Z,60.51
2023-03-16T09:25:58.216Z,59.64
2023-03-16T09:28:01.386Z,59.41
2023-03-16T09:30:05.264Z,58.43
2023-03-16T09:32:09.088Z,57.88
2023-03-16T09:34:12.113Z,58.29
2023-03-16T09:36:15.607Z,58.23
2023-03-16T09:38:19.097Z,58.34
2023-03-16T09:40:24.641Z,58.68
2023-03-16T09:42:36.406Z,58.52
2023-03-16T09:44:48.017Z,58.15
2023-03-16T09:46:52.554Z,58.07
2023-03-16T09:48:56.945Z,57.50
2023-03-16T09:51:03.482Z,57.66
2023-03-16T09:53:15.383Z,57.44
2023-03-16T09:55:37.807Z,58.09
2023-03-16T09:58:19.793Z,58.19
2023-03-16T10:01:36.129Z,57.13
2023-03-16T10:04:15.430Z,57.63
2023-03-16T10:06:20.672Z,57.00
2023-03-16T10:08:25.610Z,55.03
2023-03-16T10:13:06.364Z,56.00
2023-03-16T10:15:12.734Z,55.31
2023-03-16T10:17:18.897Z,54.98
2023-03-16T10:19:30.748Z,55.55
2023-03-16T10:21:39.976Z,55.32
2023-03-16T10:23:44.200Z,54.37
2023-03-16T10:25:48.787Z,53.87
2023-03-16T10:27:52.908Z,53.01
2023-03-16T10:29:57.290Z,52.15
2023-03-16T10:32:03.092Z,53.10
2023-03-16T10:34:07.339Z,53.50
2023-03-16T10:36:25.285Z,53.29
2023-03-16T10:38:32.902Z,51.97
2023-03-16T10:40:38.704Z,52.49
2023-03-16T10:42:41.598Z,52.18
2023-03-16T10:44:45.277Z,51.46
2023-03-16T10:46:53.358Z,51.98
2023-03-16T10:49:00.096Z,50.86
2023-03-16T10:51:07.820Z,51.64
2023-03-16T10:53:18.620Z,50.51
2023-03-16T10:55:26.135Z,50.63
2023-03-16T10:57:34.551Z,50.87
2023-03-16T10:59:38.226Z,52.18
2023-03-16T11:01:41.853Z,52.68
2023-03-16T11:03:53.380Z,51.50
2023-03-16T11:06:02.105Z,52.21
2023-03-16T11:08:12.377Z,52.35
2023-03-16T11:10:28.850Z,51.20
2023-03-16T11:12:33.191Z,51.83
2023-03-16T11:14:37.119Z,52.17
2023-03-16T11:16:45.018Z,52.53
2023-03-16T11:18:54.145Z,52.37
2023-03-16T11:20:58.009Z,51.81
2023-03-16T11:23:01.782Z,52.12
2023-03-16T11:25:13.913Z,52.75
2023-03-16T11:27:24.585Z,52.61
2023-03-16T11:29:35.901Z,52.20
2023-03-16T11:31:46.028Z,52.75
2023-03-16T11:33:50.253Z,53.05
2023-03-16T11:36:02.592Z,52.60
2023-03-16T11:38:15.292Z,51.59
2023-03-16T11:40:30.362Z,51.77
2023-03-16T11:42:39.441Z,51.72
2023-03-16T11:44:45.593Z,51.92
2023-03-16T11:46:57.256Z,52.09
2023-03-16T11:49:25.514Z,50.80
2023-03-16T11:51:36.707Z,52.03
2023-03-16T11:53:50.681Z,52.49
2023-03-16T11:56:04.449Z,51.84
2023-03-16T11:58:29.149Z,50.90
2023-03-16T12:00:41.556Z,50.63
2023-03-16T12:02:55.974Z,50.71
2023-03-16T12:05:22.271Z,50.31
2023-03-16T12:07:44.784Z,49.64
2023-03-16T12:10:05.120Z,49.76
2023-03-16T12:12:23.333Z,48.98
2023-03-16T12:14:31.182Z,48.46
2023-03-16T12:16:49.058Z,48.11
2023-03-16T12:18:55.991Z,48.67
2023-03-16T12:21:04.130Z,48.60
2023-03-16T12:23:11.981Z,48.71
2023-03-16T12:25:20.461Z,48.61
2023-03-16T12:27:27.331Z,48.34
2023-03-16T12:29:37.500Z,48.24
2023-03-16T12:31:47.467Z,48.50
2023-03-16T12:34:02.216Z,48.06
2023-03-16T12:36:26.121Z,48.72
2023-03-16T12:38:39.498Z,47.92
2023-03-16T12:40:50.590Z,48.59
2023-03-16T12:43:08.250Z,48.46
2023-03-16T12:45:17.669Z,48.17
2023-03-16T12:47:28.227Z,47.14
2023-03-16T12:49:33.851Z,47.15
2023-03-16T12:51:41.268Z,47.87
2023-03-16T12:53:47.691Z,48.48
2023-03-16T12:55:50.440Z,46.98
2023-03-16T12:58:01.362Z,47.83
2023-03-16T13:00:09.192Z,48.55
2023-03-16T13:02:17.550Z,48.08
2023-03-16T13:04:23.384Z,48.79
2023-03-16T13:06:32.746Z,47.46
2023-03-16T13:08:48.508Z,46.64
2023-03-16T13:11:01.901Z,46.79
2023-03-16T13:13:13.041Z,47.46
2023-03-16T13:15:28.184Z,47.45
2023-03-16T13:17:33.321Z,47.26
2023-03-16T13:19:39.799Z,46.99
2023-03-16T13:21:43.151Z,46.64
2023-03-16T13:23:57.425Z,44.52
2023-03-16T13:26:04.607Z,45.74
2023-03-16T13:28:13.016Z,46.15
2023-03-16T13:30:22.194Z,46.58
2023-03-16T13:32:28.617Z,45.94
2023-03-16T13:34:34.115Z,45.79
2023-03-16T13:36:37.793Z,45.83
2023-03-16T13:38:40.737Z,45.92
2023-03-16T13:40:49.247Z,46.18
2023-03-16T13:42:53.156Z,46.23
2023-03-16T13:44:57.703Z,46.93
2023-03-16T13:47:05.505Z,47.35
2023-03-16T13:49:08.650Z,46.80
2023-03-16T13:51:17.284Z,46.41
2023-03-16T13:53:24.518Z,45.67
2023-03-16T13:55:32.347Z,46.47
2023-03-16T13:57:41.250Z,45.35
2023-03-16T13:59:44.735Z,45.10
2023-03-16T14:01:49.202Z,45.73
2023-03-16T14:03:52.445Z,46.15
2023-03-16T14:05:58.411Z,45.57
2023-03-16T14:08:02.127Z,46.07
2023-03-16T14:10:06.926Z,45.59
2023-03-16T14:12:15.671Z,44.66
2023-03-16T14:14:26.411Z,45.24
2023-03-16T14:16:32.034Z,45.67
2023-03-16T14:18:37.549Z,46.54
2023-03-16T14:20:41.884Z,46.68
2023-03-16T14:22:44.802Z,45.83
2023-03-16T14:24:53.964Z,46.20
2023-03-16T14:26:56.896Z,46.14
2023-03-16T14:29:06.261Z,45.87
2023-03-16T14:31:13.154Z,46.06
2023-03-16T14:33:28.541Z,46.52
2023-03-16T14:35:32.463Z,47.49
2023-03-16T14:37:37.139Z,47.29
2023-03-16T14:39:41.805Z,46.70
2023-03-16T14:41:45.358Z,46.39
2023-03-16T14:43:50.584Z,46.67
2023-03-16T14:45:53.881Z,46.88
2023-03-16T14:48:03.764Z,45.80
2023-03-16T14:50:09.776Z,45.68
2023-03-16T14:52:23.152Z,45.83
2023-03-16T14:54:27.335Z,46.09
2023-03-16T14:56:34.864Z,46.18
2023-03-16T14:58:38.021Z,46.54
2023-03-16T15:00:52.294Z,45.57
2023-03-16T15:03:02.488Z,44.63
2023-03-16T15:05:06.164Z,44.90
2023-03-16T15:07:23.853Z,45.51
2023-03-16T15:09:34.362Z,45.32
2023-03-16T15:11:38.604Z,45.04
2023-03-16T15:14:03.726Z,44.44
2023-03-16T15:16:06.986Z,44.25
2023-03-16T15:18:11.373Z,43.54
2023-03-16T15:20:15.640Z,44.57
2023-03-16T15:22:21.997Z,44.89
2023-03-16T15:24:26.126Z,44.51
2023-03-16T15:26:30.615Z,43.82
2023-03-16T15:28:33.404Z,44.10
2023-03-16T15:30:36.188Z,44.32
2023-03-16T15:32:39.003Z,44.50
2023-03-16T15:34:44.413Z,45.29
2023-03-16T15:36:47.214Z,45.62
2023-03-16T15:38:52.080Z,45.67
2023-03-16T15:40:55.293Z,44.83
2023-03-16T15:42:58.104Z,44.87
2023-03-16T15:45:01.031Z,45.26
2023-03-16T15:47:04.451Z,44.64
2023-03-16T15:49:07.288Z,43.14
2023-03-16T15:51:21.172Z,43.08
2023-03-16T15:53:30.912Z,43.40
2023-03-16T15:55:37.605Z,44.29
2023-03-16T15:57:41.229Z,45.09
2023-03-16T15:59:44.909Z,45.61
2023-03-16T16:01:48.556Z,45.26
2023-03-16T16:03:56.305Z,44.23
2023-03-16T16:05:59.188Z,44.48
2023-03-16T16:08:03.378Z,43.10
2023-03-16T16:10:07.348Z,42.50
2023-03-16T16:12:13.748Z,43.71
2023-03-16T16:14:18.305Z,43.96
2023-03-16T16:16:21.238Z,43.93
2023-03-16T16:18:30.317Z,44.68
2023-03-16T16:20:33.925Z,44.85
2023-03-16T16:22:38.914Z,45.29
2023-03-16T16:24:43.569Z,44.81
2023-03-16T16:26:53.346Z,45.40
2023-03-16T16:28:58.458Z,45.39
2023-03-16T16:31:02.402Z,46.05
2023-03-16T16:33:05.405Z,44.62
2023-03-16T16:35:14.350Z,44.55
2023-03-16T16:37:17.142Z,44.82
2023-03-16T16:39:19.944Z,45.12
2023-03-16T16:41:27.998Z,44.93
2023-03-16T16:43:35.383Z,44.19
2023-03-16T16:45:38.482Z,44.60
2023-03-16T16:47:41.616Z,43.96
2023-03-16T16:49:44.374Z,43.90
2023-03-16T16:51:47.623Z,44.12
2023-03-16T16:53:51.490Z,44.36
2023-03-16T16:55:54.929Z,44.65
2023-03-16T16:57:59.109Z,44.08
2023-03-16T17:00:02.902Z,43.42
2023-03-16T17:02:29.228Z,43.63
2023-03-16T17:04:32.103Z,44.34
2023-03-16T17:06:35.486Z,43.64
2023-03-16T17:08:38.226Z,44.74
2023-03-16T17:10:41.693Z,43.67
2023-03-16T17:12:45.371Z,43.93
2023-03-16T17:14:51.095Z,44.32
2023-03-16T17:16:54.390Z,44.41
2023-03-16T17:18:57.449Z,44.48
2023-03-16T17:21:00.658Z,45.82
2023-03-16T17:23:04.281Z,45.75
2023-03-16T17:25:08.513Z,46.38
2023-03-16T17:27:14.206Z,45.29
2023-03-16T17:29:22.463Z,44.96
2023-03-16T17:31:31.027Z,44.95
2023-03-16T17:33:33.876Z,45.54
2023-03-16T17:35:36.655Z,45.41
2023-03-16T17:37:39.539Z,45.51
2023-03-16T17:39:42.698Z,45.93
2023-03-16T17:41:45.947Z,46.27
2023-03-16T17:43:49.094Z,46.20
2023-03-16T17:45:53.205Z,46.14
2023-03-16T17:47:57.533Z,46.30
2023-03-16T17:50:01.004Z,46.53
2023-03-16T17:52:06.889Z,46.87
2023-03-16T17:54:09.630Z,46.19
2023-03-16T17:56:20.669Z,47.19
2023-03-16T17:58:27.024Z,46.45
2023-03-16T18:00:32.966Z,47.30
2023-03-16T18:02:43.162Z,47.44
2023-03-16T18:04:48.536Z,47.13
2023-03-16T18:06:52.292Z,47.31
2023-03-16T18:08:55.228Z,47.92
2023-03-16T18:11:00.522Z,47.66
2023-03-16T18:13:05.996Z,47.34
2023-03-16T18:15:16.096Z,47.03
2023-03-16T18:17:26.721Z,47.68
2023-03-16T18:19:32.923Z,47.36
2023-03-16T18:21:37.547Z,47.65
2023-03-16T18:23:40.370Z,47.18
2023-03-16T18:25:43.916Z,48.28
2023-03-16T18:27:46.829Z,49.32
2023-03-16T18:29:49.674Z,49.02
2023-03-16T18:31:56.152Z,48.66
2023-03-16T18:34:00.714Z,48.72
2023-03-16T18:36:06.609Z,49.06
2023-03-16T18:38:18.009Z,48.55
2023-03-16T18:40:21.966Z,48.97
2023-03-16T18:42:27.669Z,47.99
2023-03-16T18:44:31.363Z,48.69
2023-03-16T18:46:36.465Z,48.47
2023-03-16T18:48:39.249Z,49.00
2023-03-16T18:50:43.645Z,48.64
2023-03-16T18:52:46.746Z,49.47
2023-03-16T18:54:53.286Z,49.47
2023-03-16T18:56:58.559Z,49.53
2023-03-16T18:59:02.228Z,49.55
2023-03-16T19:01:06.339Z,49.67
2023-03-16T19:03:20.291Z,49.44
2023-03-16T19:05:30.088Z,49.05
2023-03-16T19:07:37.442Z,49.39
2023-03-16T19:09:42.196Z,49.60
2023-03-16T19:11:46.869Z,49.17
2023-03-16T19:13:49.757Z,49.11
2023-03-16T19:15:54.178Z,50.09
2023-03-16T19:17:57.990Z,49.43
2023-03-16T19:20:00.821Z,49.94
2023-03-16T19:22:09.803Z,50.14
2023-03-16T19:24:23.700Z,49.54
2023-03-16T19:26:26.872Z,50.31
2023-03-16T19:28:34.261Z,49.44
2023-03-16T19:30:37.527Z,49.84
2023-03-16T19:32:40.922Z,50.29
2023-03-16T19:34:43.885Z,49.50
2023-03-16T19:36:46.817Z,49.80
2023-03-16T19:38:51.072Z,49.89
2023-03-16T19:40:57.023Z,50.03
2023-03-16T19:42:59.884Z,49.99
2023-03-16T19:45:06.788Z,50.25
2023-03-16T19:47:22.588Z,49.92
2023-03-16T19:49:27.018Z,49.85
2023-03-16T19:51:31.207Z,50.49
2023-03-16T19:53:33.972Z,50.06
2023-03-16T19:55:38.142Z,49.92
2023-03-16T19:57:41.045Z,50.21
2023-03-16T19:59:46.082Z,50.35
2023-03-16T20:01:50.301Z,50.02
2023-03-16T20:03:53.770Z,50.14
2023-03-16T20:05:56.719Z,50.20
2023-03-16T20:08:00.752Z,50.92
2023-03-16T20:10:03.794Z,50.70
2023-03-16T20:12:07.933Z,50.72
2023-03-16T20:14:20.417Z,50.22
2023-03-16T20:16:26.739Z,50.59
2023-03-16T20:18:31.157Z,50.50
2023-03-16T20:20:35.214Z,50.39
2023-03-16T20:22:37.982Z,51.31
2023-03-16T20:24:41.926Z,50.81
2023-03-16T20:26:46.330Z,51.06
2023-03-16T20:28:49.850Z,51.02
2023-03-16T20:30:53.072Z,51.17
2023-03-16T20:32:57.168Z,51.06
2023-03-16T20:35:01.485Z,51.35
2023-03-16T20:37:04.307Z,51.46
2023-03-16T20:39:07.275Z,51.57
2023-03-16T20:41:15.123Z,51.27
2023-03-16T20:43:25.122Z,51.49
2023-03-16T20:45:30.542Z,51.51
2023-03-16T20:47:33.517Z,51.51
2023-03-16T20:49:36.304Z,51.75
2023-03-16T20:51:40.545Z,51.86
2023-03-16T20:53:44.769Z,52.18
2023-03-16T20:55:48.790Z,51.82
2023-03-16T20:57:53.287Z,52.02
2023-03-16T20:59:56.420Z,52.14
2023-03-16T21:02:01.090Z,52.49
2023-03-16T21:04:03.912Z,52.51
2023-03-16T21:06:15.560Z,52.52
2023-03-16T21:08:20.650Z,52.33
2023-03-16T21:10:25.964Z,52.67
2023-03-16T21:12:31.927Z,52.47
2023-03-16T21:14:34.807Z,52.67
2023-03-16T21:16:38.626Z,51.75
2023-03-16T21:18:41.470Z,52.56
2023-03-16T21:20:44.254Z,52.53
2023-03-16T21:22:47.138Z,52.66
2023-03-16T21:24:51.596Z,52.44
2023-03-16T21:26:54.386Z,52.55
2023-03-16T21:29:00.304Z,52.78
2023-03-16T21:31:03.840Z,52.16
2023-03-16T21:33:18.117Z,52.67
2023-03-16T21:35:21.596Z,52.79
2023-03-16T21:37:25.042Z,52.56
2023-03-16T21:39:28.097Z,52.37
2023-03-16T21:41:32.334Z,52.35
2023-03-16T21:43:35.478Z,52.45
2023-03-16T21:45:38.730Z,52.59
2023-03-16T21:47:42.096Z,52.86
2023-03-16T21:49:44.988Z,52.74
2023-03-16T21:51:47.867Z,52.87
2023-03-16T21:53:50.714Z,52.56
2023-03-16T21:55:54.570Z,53.04
2023-03-16T21:58:00.152Z,53.30
2023-03-16T22:00:03.011Z,53.29
2023-03-16T22:02:19.445Z,53.09
2023-03-16T22:04:22.975Z,52.88
2023-03-16T22:06:28.806Z,52.65
2023-03-16T22:08:33.600Z,52.85
2023-03-16T22:10:37.654Z,52.90
2023-03-16T22:12:40.466Z,53.13
2023-03-16T22:14:45.846Z,52.97
2023-03-16T22:16:48.697Z,53.22
2023-03-16T22:18:53.501Z,53.24
2023-03-16T22:20:57.865Z,53.41
2023-03-16T22:23:01.337Z,53.41
2023-03-16T22:25:04.214Z,53.07
2023-03-16T22:27:12.753Z,52.93
2023-03-16T22:29:21.940Z,52.95
2023-03-16T22:31:31.888Z,52.92
2023-03-16T22:33:37.558Z,52.46
2023-03-16T22:35:40.690Z,53.06
2023-03-16T22:37:43.620Z,53.11
2023-03-16T22:39:46.435Z,53.04
2023-03-16T22:41:49.266Z,52.74
2023-03-16T22:43:52.725Z,53.18
2023-03-16T22:45:56.905Z,52.99
2023-03-16T22:48:03.227Z,53.10
2023-03-16T22:50:07.285Z,53.40
2023-03-16T22:52:12.547Z,52.75
2023-03-16T22:54:19.569Z,52.56
2023-03-16T22:56:23.112Z,52.76
2023-03-16T22:58:30.860Z,52.32
2023-03-16T23:00:35.471Z,52.29
2023-03-16T23:02:38.651Z,52.39
2023-03-16T23:04:42.913Z,52.29
2023-03-16T23:06:47.475Z,51.94
2023-03-16T23:08:51.613Z,51.80
2023-03-16T23:10:55.194Z,51.95
2023-03-16T23:13:00.396Z,52.30
2023-03-16T23:15:03.263Z,52.08
2023-03-16T23:17:12.613Z,52.02
2023-03-16T23:19:25.128Z,52.12
2023-03-16T23:21:31.792Z,51.75
2023-03-16T23:23:34.896Z,51.83
2023-03-16T23:25:37.772Z,51.93
2023-03-16T23:27:41.442Z,52.06
2023-03-16T23:29:44.307Z,52.18
2023-03-16T23:31:47.451Z,52.28
2023-03-16T23:33:50.520Z,52.17
2023-03-16T23:35:53.421Z,52.06
2023-03-16T23:37:58.191Z,51.87
2023-03-16T23:40:01.346Z,51.98
2023-03-16T23:42:05.499Z,51.88
2023-03-16T23:44:09.840Z,52.21
2023-03-16T23:46:14.330Z,51.47
2023-03-16T23:48:20.099Z,51.78
2023-03-16T23:50:26.780Z,51.83
2023-03-16T23:52:29.574Z,51.99
2023-03-16T23:54:33.934Z,51.96
2023-03-16T23:56:37.091Z,52.32
2023-03-16T23:58:39.968Z,52.19
